createdAt,value
2024-04-03T00:00:57.414Z,9.46
2024-04-03T00:01:57.407Z,9.51
2024-04-03T00:02:57.411Z,9.48
2024-04-03T00:03:57.381Z,9.50
2024-04-03T00:04:57.367Z,9.54
2024-04-03T00:05:57.359Z,9.61
2024-04-03T00:06:57.357Z,9.64
2024-04-03T00:07:57.328Z,9.60
2024-04-03T00:08:57.324Z,9.58
2024-04-03T00:09:57.327Z,9.64
2024-04-03T00:10:57.297Z,9.58
2024-04-03T00:11:57.284Z,9.64
2024-04-03T00:12:57.315Z,9.65
2024-04-03T00:13:57.272Z,9.64
2024-04-03T00:14:57.264Z,9.72
2024-04-03T00:15:57.237Z,9.69
2024-04-03T00:16:57.244Z,9.69
2024-04-03T00:17:57.230Z,9.69
2024-04-03T00:18:57.204Z,9.69
2024-04-03T00:19:57.198Z,9.58
2024-04-03T00:20:57.204Z,9.66
2024-04-03T00:21:57.170Z,9.68
2024-04-03T00:22:57.212Z,9.66
2024-04-03T00:23:57.147Z,9.64
2024-04-03T00:24:57.144Z,9.61
2024-04-03T00:25:57.156Z,9.61
2024-04-03T00:26:57.111Z,9.60
2024-04-03T00:27:57.105Z,9.61
2024-04-03T00:28:57.104Z,9.64
2024-04-03T00:29:57.092Z,9.60
2024-04-03T00:30:57.066Z,9.47
2024-04-03T00:31:57.061Z,9.53
2024-04-03T00:32:57.044Z,9.56
2024-04-03T00:33:57.047Z,9.50
2024-04-03T00:34:57.031Z,9.50
2024-04-03T00:35:57.435Z,9.56
2024-04-03T00:36:57.000Z,9.50
2024-04-03T00:37:56.985Z,9.43
2024-04-03T00:38:56.973Z,9.50
2024-04-03T00:39:56.970Z,9.50
2024-04-03T00:40:57.015Z,9.50
2024-04-03T00:41:56.951Z,9.48
2024-04-03T00:42:56.929Z,9.42
2024-04-03T00:43:56.917Z,9.47
2024-04-03T00:44:56.916Z,9.48
2024-04-03T00:45:56.923Z,9.47
2024-04-03T00:46:56.884Z,9.47
2024-04-03T00:47:56.870Z,9.43
2024-04-03T00:48:56.858Z,9.31
2024-04-03T00:49:56.862Z,9.36
2024-04-03T00:50:56.845Z,9.38
2024-04-03T00:51:56.837Z,9.36
2024-04-03T00:52:56.819Z,9.39
2024-04-03T00:53:56.811Z,9.32
2024-04-03T00:54:56.803Z,9.21
2024-04-03T00:55:56.788Z,9.23
2024-04-03T00:56:56.791Z,9.18
2024-04-03T00:57:56.770Z,9.15
2024-04-03T00:58:56.768Z,9.14
2024-04-03T00:59:56.747Z,9.10
2024-04-03T01:00:56.722Z,9.05
2024-04-03T01:01:56.709Z,9.11
2024-04-03T01:02:56.756Z,9.05
2024-04-03T01:03:57.417Z,9.08
2024-04-03T01:04:56.684Z,9.04
2024-04-03T01:05:56.668Z,9.04
2024-04-03T01:06:56.653Z,9.04
2024-04-03T01:07:56.653Z,9.01
2024-04-03T01:08:56.647Z,9.04
2024-04-03T01:09:56.630Z,9.04
2024-04-03T01:10:56.613Z,9.04
2024-04-03T01:11:56.597Z,9.08
2024-04-03T01:12:56.637Z,9.11
2024-04-03T01:13:56.591Z,9.05
2024-04-03T01:14:56.566Z,9.11
2024-04-03T01:15:56.554Z,9.11
2024-04-03T01:16:56.544Z,9.10
2024-04-03T01:17:56.545Z,9.17
2024-04-03T01:18:56.524Z,9.20
2024-04-03T01:19:56.505Z,9.15
2024-04-03T01:20:56.502Z,9.17
2024-04-03T01:21:56.518Z,9.26
2024-04-03T01:22:56.973Z,9.24
2024-04-03T01:23:56.466Z,9.23
2024-04-03T01:24:56.460Z,9.17
2024-04-03T01:25:56.443Z,9.23
2024-04-03T01:26:56.442Z,9.20
2024-04-03T01:27:56.444Z,9.18
2024-04-03T01:28:56.419Z,9.17
2024-04-03T01:29:56.410Z,9.14
2024-04-03T01:30:56.399Z,9.15
2024-04-03T01:31:56.392Z,9.13
2024-04-03T01:32:56.359Z,9.17
2024-04-03T01:33:56.350Z,9.11
2024-04-03T01:34:56.338Z,9.08
2024-04-03T01:35:56.324Z,9.02
2024-04-03T01:36:56.340Z,9.05
2024-04-03T01:37:56.309Z,8.89
2024-04-03T01:38:56.297Z,8.92
2024-04-03T01:39:56.280Z,8.92
2024-04-03T01:40:56.284Z,8.95
2024-04-03T01:41:56.274Z,8.91
2024-04-03T01:42:56.291Z,8.84
2024-04-03T01:43:56.235Z,8.84
2024-04-03T01:44:56.224Z,8.81
2024-04-03T01:45:56.235Z,8.61
2024-04-03T01:46:56.208Z,8.70
2024-04-03T01:47:56.194Z,8.56
2024-04-03T01:48:56.177Z,8.61
2024-04-03T01:49:56.162Z,8.58
2024-04-03T01:50:56.178Z,8.58
2024-04-03T01:51:56.156Z,8.61
2024-04-03T01:52:56.142Z,8.61
2024-04-03T01:53:56.149Z,8.53
2024-04-03T01:54:56.130Z,8.52
2024-04-03T01:55:56.127Z,8.48
2024-04-03T01:56:56.087Z,8.53
2024-04-03T01:57:56.114Z,8.50
2024-04-03T01:58:56.077Z,8.47
2024-04-03T01:59:56.069Z,8.50
2024-04-03T02:00:56.045Z,8.45
2024-04-03T02:01:56.044Z,8.45
2024-04-03T02:02:56.052Z,8.44
2024-04-03T02:03:56.011Z,8.48
2024-04-03T02:04:56.010Z,8.45
2024-04-03T02:05:55.985Z,8.47
2024-04-03T02:06:55.978Z,8.47
2024-04-03T02:07:55.967Z,8.47
2024-04-03T02:08:55.970Z,8.53
2024-04-03T02:09:55.959Z,8.50
2024-04-03T02:10:55.929Z,8.58
2024-04-03T02:11:55.914Z,8.62
2024-04-03T02:12:55.913Z,8.48
2024-04-03T02:13:55.907Z,8.58
2024-04-03T02:14:55.887Z,8.55
2024-04-03T02:15:55.887Z,8.65
2024-04-03T02:16:55.871Z,8.50
2024-04-03T02:17:55.866Z,8.53
2024-04-03T02:18:55.858Z,8.47
2024-04-03T02:19:55.843Z,8.53
2024-04-03T02:20:55.842Z,8.50
2024-04-03T02:21:55.822Z,8.50
2024-04-03T02:22:55.847Z,8.58
2024-04-03T02:23:55.975Z,8.55
2024-04-03T02:24:55.772Z,8.66
2024-04-03T02:25:55.763Z,8.59
2024-04-03T02:26:55.753Z,8.62
2024-04-03T02:27:55.757Z,8.63
2024-04-03T02:28:55.752Z,8.70
2024-04-03T02:29:55.728Z,8.74
2024-04-03T02:30:55.708Z,8.70
2024-04-03T02:31:55.692Z,8.79
2024-04-03T02:32:55.697Z,8.76
2024-04-03T02:33:55.690Z,8.77
2024-04-03T02:34:55.661Z,8.84
2024-04-03T02:35:55.656Z,8.80
2024-04-03T02:36:55.636Z,8.84
2024-04-03T02:37:55.643Z,8.83
2024-04-03T02:38:55.628Z,8.92
2024-04-03T02:39:55.630Z,8.89
2024-04-03T02:40:55.599Z,8.87
2024-04-03T02:41:55.594Z,8.91
2024-04-03T02:42:55.577Z,8.86
2024-04-03T02:43:55.559Z,8.94
2024-04-03T02:44:55.543Z,8.92
2024-04-03T02:45:55.540Z,9.01
2024-04-03T02:46:55.542Z,8.96
2024-04-03T02:47:55.517Z,9.02
2024-04-03T02:48:55.508Z,9.01
2024-04-03T02:49:55.505Z,9.04
2024-04-03T02:50:55.935Z,9.11
2024-04-03T02:51:55.481Z,9.02
2024-04-03T02:52:55.457Z,8.99
2024-04-03T02:53:55.446Z,9.05
2024-04-03T02:54:55.436Z,9.10
2024-04-03T02:55:55.445Z,9.10
2024-04-03T02:56:55.439Z,9.11
2024-04-03T02:57:55.405Z,9.10
2024-04-03T02:58:55.399Z,9.13
2024-04-03T02:59:55.377Z,9.02
2024-04-03T03:00:55.377Z,9.11
2024-04-03T03:01:55.374Z,9.08
2024-04-03T03:02:55.366Z,9.13
2024-04-03T03:03:55.335Z,9.13
2024-04-03T03:04:55.327Z,9.14
2024-04-03T03:05:55.332Z,9.02
2024-04-03T03:06:55.297Z,9.14
2024-04-03T03:07:55.284Z,9.05
2024-04-03T03:08:55.275Z,9.11
2024-04-03T03:09:55.300Z,9.14
2024-04-03T03:10:55.269Z,9.14
2024-04-03T03:11:55.244Z,9.14
2024-04-03T03:12:55.230Z,9.20
2024-04-03T03:13:55.215Z,9.13
2024-04-03T03:14:55.239Z,9.14
2024-04-03T03:15:55.194Z,9.13
2024-04-03T03:16:55.206Z,9.13
2024-04-03T03:17:55.180Z,9.11
2024-04-03T03:18:55.165Z,9.14
2024-04-03T03:19:55.168Z,9.11
2024-04-03T03:20:55.135Z,9.11
2024-04-03T03:21:55.171Z,9.11
2024-04-03T03:22:55.122Z,9.14
2024-04-03T03:23:55.117Z,9.18
2024-04-03T03:24:55.109Z,9.14
2024-04-03T03:25:55.087Z,9.10
2024-04-03T03:26:55.113Z,9.11
2024-04-03T03:27:55.061Z,9.05
2024-04-03T03:28:55.062Z,9.04
2024-04-03T03:29:55.032Z,9.11
2024-04-03T03:30:55.024Z,9.14
2024-04-03T03:31:55.015Z,9.11
2024-04-03T03:32:55.005Z,9.13
2024-04-03T03:33:55.003Z,9.14
2024-04-03T03:34:54.980Z,9.11
2024-04-03T03:35:54.971Z,9.10
2024-04-03T03:36:54.959Z,9.10
2024-04-03T03:37:55.027Z,9.11
2024-04-03T03:38:54.954Z,9.17
2024-04-03T03:39:54.932Z,9.15
2024-04-03T03:40:54.911Z,9.17
2024-04-03T03:41:54.908Z,9.20
2024-04-03T03:42:54.901Z,9.15
2024-04-03T03:43:54.882Z,9.20
2024-04-03T03:44:54.869Z,9.17
2024-04-03T03:45:54.863Z,9.24
2024-04-03T03:46:54.843Z,9.20
2024-04-03T03:47:54.845Z,9.20
2024-04-03T03:48:54.824Z,9.23
2024-04-03T03:49:54.813Z,9.23
2024-04-03T03:50:54.804Z,9.29
2024-04-03T03:51:54.802Z,9.28
2024-04-03T03:52:54.791Z,9.24
2024-04-03T03:53:54.811Z,9.24
2024-04-03T03:54:54.752Z,9.35
2024-04-03T03:55:54.744Z,9.33
2024-04-03T03:56:54.746Z,9.20
2024-04-03T03:57:54.724Z,9.26
2024-04-03T03:58:54.711Z,9.31
2024-04-03T03:59:54.698Z,9.28
2024-04-03T04:00:54.692Z,9.32
2024-04-03T04:01:54.807Z,9.20
2024-04-03T04:02:54.666Z,9.24
2024-04-03T04:03:54.658Z,9.35
2024-04-03T04:04:54.640Z,9.21
2024-04-03T04:05:54.634Z,9.21
2024-04-03T04:06:54.636Z,9.20
2024-04-03T04:07:54.664Z,9.20
2024-04-03T04:08:54.595Z,9.20
2024-04-03T04:09:54.602Z,9.28
2024-04-03T04:10:54.593Z,9.31
2024-04-03T04:11:54.580Z,9.24
2024-04-03T04:12:54.552Z,9.26
2024-04-03T04:13:54.543Z,9.26
2024-04-03T04:14:54.525Z,9.26
2024-04-03T04:15:54.595Z,9.21
2024-04-03T04:16:54.506Z,9.31
2024-04-03T04:17:54.502Z,9.31
2024-04-03T04:18:54.481Z,9.29
2024-04-03T04:19:54.472Z,9.35
2024-04-03T04:20:54.472Z,9.36
2024-04-03T04:21:54.453Z,9.29
2024-04-03T04:22:54.504Z,9.26
2024-04-03T04:23:54.421Z,9.36
2024-04-03T04:24:54.438Z,9.21
2024-04-03T04:25:54.428Z,9.17
2024-04-03T04:26:54.390Z,9.24
2024-04-03T04:27:54.383Z,9.29
2024-04-03T04:28:54.368Z,9.28
2024-04-03T04:29:54.376Z,9.33
2024-04-03T04:30:54.346Z,9.24
2024-04-03T04:31:54.331Z,9.26
2024-04-03T04:32:54.321Z,9.21
2024-04-03T04:33:54.310Z,9.35
2024-04-03T04:34:54.309Z,9.21
2024-04-03T04:35:54.289Z,9.21
2024-04-03T04:36:54.288Z,9.29
2024-04-03T04:37:54.270Z,9.24
2024-04-03T04:38:54.268Z,9.24
2024-04-03T04:39:54.261Z,9.23
2024-04-03T04:40:54.232Z,9.28
2024-04-03T04:41:54.237Z,9.20
2024-04-03T04:42:54.209Z,9.17
2024-04-03T04:43:54.217Z,9.18
2024-04-03T04:44:54.186Z,9.23
2024-04-03T04:45:54.188Z,9.24
2024-04-03T04:46:54.163Z,9.17
2024-04-03T04:47:54.657Z,9.23
2024-04-03T04:48:54.155Z,9.24
2024-04-03T04:49:54.129Z,9.24
2024-04-03T04:50:54.118Z,9.17
2024-04-03T04:51:54.109Z,9.20
2024-04-03T04:52:54.119Z,9.20
2024-04-03T04:53:54.126Z,9.28
2024-04-03T04:54:54.074Z,9.24
2024-04-03T04:55:54.063Z,9.24
2024-04-03T04:56:54.071Z,9.29
2024-04-03T04:57:54.101Z,9.29
2024-04-03T04:58:54.032Z,9.29
2024-04-03T04:59:54.019Z,9.32
2024-04-03T05:00:54.005Z,9.31
2024-04-03T05:01:54.015Z,9.29
2024-04-03T05:02:53.999Z,9.40
2024-04-03T05:03:53.978Z,9.40
2024-04-03T05:04:53.957Z,9.39
2024-04-03T05:05:53.946Z,9.29
2024-04-03T05:06:53.960Z,9.32
2024-04-03T05:07:53.991Z,9.47
2024-04-03T05:08:53.917Z,9.38
2024-04-03T05:09:53.906Z,9.40
2024-04-03T05:10:53.890Z,9.53
2024-04-03T05:11:53.899Z,9.46
2024-04-03T05:12:53.879Z,9.46
2024-04-03T05:13:53.867Z,9.42
2024-04-03T05:14:53.848Z,9.46
2024-04-03T05:15:53.866Z,9.48
2024-04-03T05:16:53.851Z,9.43
2024-04-03T05:17:53.816Z,9.46
2024-04-03T05:18:53.805Z,9.47
2024-04-03T05:19:53.788Z,9.48
2024-04-03T05:20:53.789Z,9.54
2024-04-03T05:21:53.768Z,9.51
2024-04-03T05:22:53.766Z,9.40
2024-04-03T05:23:53.761Z,9.51
2024-04-03T05:24:53.729Z,9.48
2024-04-03T05:25:53.744Z,9.50
2024-04-03T05:26:53.709Z,9.48
2024-04-03T05:27:53.699Z,9.51
2024-04-03T05:28:53.695Z,9.48
2024-04-03T05:29:53.714Z,9.54
2024-04-03T05:30:53.674Z,9.58
2024-04-03T05:31:53.657Z,9.58
2024-04-03T05:32:53.638Z,9.64
2024-04-03T05:33:53.648Z,9.58
2024-04-03T05:34:53.629Z,9.68
2024-04-03T05:35:53.623Z,9.61
2024-04-03T05:36:53.596Z,9.58
2024-04-03T05:37:53.594Z,9.69
2024-04-03T05:38:53.572Z,9.65
2024-04-03T05:39:53.574Z,9.68
2024-04-03T05:41:02.294Z,9.72
2024-04-03T05:41:54.542Z,9.68
2024-04-03T05:42:53.698Z,9.68
2024-04-03T05:43:53.516Z,9.76
2024-04-03T05:44:53.616Z,9.75
2024-04-03T05:45:53.505Z,9.68
2024-04-03T05:46:53.518Z,9.71
2024-04-03T05:47:53.491Z,9.81
2024-04-03T05:48:54.450Z,9.79
2024-04-03T05:49:53.459Z,9.89
2024-04-03T05:50:53.432Z,9.87
2024-04-03T05:51:53.426Z,9.84
2024-04-03T05:52:53.413Z,9.96
2024-04-03T05:53:53.415Z,9.93
2024-04-03T05:54:53.385Z,9.93
2024-04-03T05:55:53.378Z,10.04
2024-04-03T05:56:53.369Z,10.04
2024-04-03T05:57:53.366Z,10.07
2024-04-03T05:58:53.370Z,10.04
2024-04-03T05:59:53.338Z,10.08
2024-04-03T06:00:53.406Z,10.02
2024-04-03T06:01:53.322Z,10.09
2024-04-03T06:02:54.665Z,9.97
2024-04-03T06:03:53.322Z,10.07
2024-04-03T06:04:53.279Z,10.05
2024-04-03T06:05:53.269Z,10.11
2024-04-03T06:06:53.255Z,10.04
2024-04-03T06:07:53.255Z,10.01
2024-04-03T06:08:53.240Z,10.05
2024-04-03T06:09:53.224Z,10.15
2024-04-03T06:10:53.237Z,10.08
2024-04-03T06:11:53.201Z,10.15
2024-04-03T06:12:53.203Z,10.18
2024-04-03T06:13:53.180Z,10.12
2024-04-03T06:14:53.162Z,10.27
2024-04-03T06:15:53.158Z,10.25
2024-04-03T06:16:53.156Z,10.23
2024-04-03T06:17:53.180Z,10.29
2024-04-03T06:18:53.117Z,10.27
2024-04-03T06:19:53.111Z,10.29
2024-04-03T06:20:53.110Z,10.29
2024-04-03T06:21:53.084Z,10.36
2024-04-03T06:22:53.104Z,10.38
2024-04-03T06:23:53.064Z,10.40
2024-04-03T06:24:53.054Z,10.42
2024-04-03T06:25:53.041Z,10.51
2024-04-03T06:26:53.040Z,10.55
2024-04-03T06:27:53.033Z,10.52
2024-04-03T06:28:53.007Z,10.52
2024-04-03T06:29:52.998Z,10.64
2024-04-03T06:30:52.993Z,10.60
2024-04-03T06:31:52.992Z,10.76
2024-04-03T06:32:52.961Z,10.78
2024-04-03T06:33:52.958Z,10.76
2024-04-03T06:34:52.941Z,10.76
2024-04-03T06:35:52.933Z,10.74
2024-04-03T06:36:52.932Z,10.73
2024-04-03T06:37:52.919Z,10.81
2024-04-03T06:38:52.903Z,10.82
2024-04-03T06:39:52.888Z,10.86
2024-04-03T06:40:53.204Z,10.70
2024-04-03T06:41:52.877Z,10.82
2024-04-03T06:42:52.843Z,10.94
2024-04-03T06:43:52.838Z,10.94
2024-04-03T06:44:52.824Z,11.07
2024-04-03T06:45:52.837Z,11.18
2024-04-03T06:46:52.803Z,11.22
2024-04-03T06:47:52.846Z,11.18
2024-04-03T06:48:52.818Z,11.25
2024-04-03T06:49:52.779Z,11.24
2024-04-03T06:50:52.789Z,11.28
2024-04-03T06:51:52.745Z,11.33
2024-04-03T06:52:52.734Z,11.28
2024-04-03T06:53:52.727Z,11.32
2024-04-03T06:54:52.732Z,11.28
2024-04-03T06:55:52.714Z,11.27
2024-04-03T06:56:52.691Z,11.17
2024-04-03T06:57:52.683Z,11.19
2024-04-03T06:58:52.662Z,11.25
2024-04-03T06:59:52.671Z,11.24
2024-04-03T07:00:52.641Z,11.32
2024-04-03T07:01:52.629Z,11.40
2024-04-03T07:02:52.624Z,11.29
2024-04-03T07:03:52.609Z,11.37
2024-04-03T07:04:54.051Z,11.39
2024-04-03T07:05:52.598Z,11.35
2024-04-03T07:06:52.584Z,11.39
2024-04-03T07:07:52.566Z,11.44
2024-04-03T07:08:52.580Z,11.33
2024-04-03T07:09:52.552Z,11.40
2024-04-03T07:10:52.543Z,11.36
2024-04-03T07:11:52.523Z,11.35
2024-04-03T07:12:52.511Z,11.46
2024-04-03T07:13:52.508Z,11.37
2024-04-03T07:14:52.488Z,11.37
2024-04-03T07:15:52.487Z,11.39
2024-04-03T07:16:52.464Z,11.42
2024-04-03T07:17:52.480Z,11.42
2024-04-03T07:18:52.459Z,11.33
2024-04-03T07:19:52.437Z,11.40
2024-04-03T07:20:52.422Z,11.35
2024-04-03T07:21:52.421Z,11.43
2024-04-03T07:22:52.395Z,11.43
2024-04-03T07:23:52.392Z,11.49
2024-04-03T07:24:52.372Z,11.43
2024-04-03T07:25:52.365Z,11.37
2024-04-03T07:26:52.349Z,11.35
2024-04-03T07:27:52.359Z,11.39
2024-04-03T07:28:52.342Z,11.39
2024-04-03T07:29:52.315Z,11.43
2024-04-03T07:30:52.305Z,11.58
2024-04-03T07:31:52.291Z,11.58
2024-04-03T07:32:52.306Z,11.54
2024-04-03T07:33:52.272Z,11.57
2024-04-03T07:34:52.259Z,11.78
2024-04-03T07:35:52.250Z,11.67
2024-04-03T07:36:52.247Z,11.67
2024-04-03T07:37:52.260Z,11.69
2024-04-03T07:38:52.223Z,11.78
2024-04-03T07:39:52.214Z,11.83
2024-04-03T07:40:52.203Z,11.79
2024-04-03T07:41:52.193Z,11.83
2024-04-03T07:42:52.185Z,11.83
2024-04-03T07:43:52.171Z,11.80
2024-04-03T07:44:52.144Z,11.95
2024-04-03T07:45:52.134Z,11.95
2024-04-03T07:46:52.147Z,12.07
2024-04-03T07:47:52.121Z,12.13
2024-04-03T07:48:52.117Z,12.17
2024-04-03T07:49:52.096Z,12.16
2024-04-03T07:50:52.080Z,12.29
2024-04-03T07:51:52.073Z,12.20
2024-04-03T07:52:54.601Z,12.14
2024-04-03T07:53:52.059Z,12.14
2024-04-03T07:54:52.041Z,12.16
2024-04-03T07:55:52.026Z,12.27
2024-04-03T07:56:52.023Z,12.07
2024-04-03T07:57:52.031Z,12.09
2024-04-03T07:58:51.987Z,12.10
2024-04-03T07:59:51.973Z,12.10
2024-04-03T08:00:51.975Z,12.07
2024-04-03T08:01:51.972Z,12.16
2024-04-03T08:02:51.940Z,12.09
2024-04-03T08:03:51.999Z,12.02
2024-04-03T08:04:51.925Z,12.02
2024-04-03T08:05:51.925Z,11.95
2024-04-03T08:06:51.899Z,11.95
2024-04-03T08:07:51.881Z,11.91
2024-04-03T08:08:51.882Z,11.94
2024-04-03T08:09:51.874Z,11.86
2024-04-03T08:10:51.874Z,11.86
2024-04-03T08:11:51.841Z,11.90
2024-04-03T08:12:51.829Z,11.99
2024-04-03T08:13:51.825Z,12.09
2024-04-03T08:14:51.823Z,12.14
2024-04-03T08:15:51.821Z,12.02
2024-04-03T08:16:51.804Z,12.02
2024-04-03T08:17:51.771Z,11.83
2024-04-03T08:18:51.767Z,11.91
2024-04-03T08:19:51.760Z,11.94
2024-04-03T08:20:51.733Z,11.98
2024-04-03T08:21:51.740Z,12.01
2024-04-03T08:22:51.735Z,11.94
2024-04-03T08:23:51.711Z,11.94
2024-04-03T08:24:51.708Z,11.90
2024-04-03T08:25:54.544Z,11.88
2024-04-03T08:26:51.675Z,11.90
2024-04-03T08:27:51.660Z,11.94
2024-04-03T08:28:51.663Z,12.02
2024-04-03T08:29:51.655Z,12.04
2024-04-03T08:30:51.625Z,12.04
2024-04-03T08:31:51.615Z,11.96
2024-04-03T08:32:51.604Z,11.83
2024-04-03T08:33:56.975Z,11.94
2024-04-03T08:34:51.581Z,11.83
2024-04-03T08:35:51.569Z,11.83
2024-04-03T08:36:51.579Z,11.94
2024-04-03T08:37:58.050Z,11.90
2024-04-03T08:38:52.560Z,11.86
2024-04-03T08:39:51.521Z,11.82
2024-04-03T08:40:51.515Z,11.90
2024-04-03T08:41:51.511Z,12.07
2024-04-03T08:42:51.512Z,12.01
2024-04-03T08:43:51.493Z,12.09
2024-04-03T08:44:51.476Z,12.04
2024-04-03T08:45:51.463Z,12.04
2024-04-03T08:46:51.449Z,12.05
2024-04-03T08:47:51.473Z,12.09
2024-04-03T08:48:51.422Z,12.10
2024-04-03T08:49:51.407Z,12.10
2024-04-03T08:50:51.397Z,12.02
2024-04-03T08:51:51.387Z,12.09
2024-04-03T08:52:51.406Z,12.13
2024-04-03T08:53:51.375Z,12.07
2024-04-03T08:54:51.352Z,12.13
2024-04-03T08:55:51.367Z,12.12
2024-04-03T08:56:51.378Z,12.12
2024-04-03T08:57:51.348Z,12.12
2024-04-03T08:58:51.312Z,12.12
2024-04-03T08:59:51.295Z,12.14
2024-04-03T09:00:51.387Z,12.10
2024-04-03T09:01:51.291Z,12.10
2024-04-03T09:02:51.260Z,12.07
2024-04-03T09:03:51.304Z,12.13
2024-04-03T09:04:51.239Z,12.09
2024-04-03T09:05:51.226Z,12.02
2024-04-03T09:06:51.241Z,12.02
2024-04-03T09:07:56.073Z,12.04
2024-04-03T09:08:52.195Z,12.04
2024-04-03T09:09:51.191Z,12.04
2024-04-03T09:10:51.170Z,12.01
2024-04-03T09:11:51.189Z,12.10
2024-04-03T09:12:51.158Z,12.05
2024-04-03T09:13:51.142Z,12.13
2024-04-03T09:14:51.135Z,12.12
2024-04-03T09:15:51.135Z,12.12
2024-04-03T09:16:56.515Z,12.17
2024-04-03T09:17:52.180Z,12.24
2024-04-03T09:18:51.087Z,12.35
2024-04-03T09:19:51.079Z,12.39
2024-04-03T09:20:51.442Z,12.47
2024-04-03T09:21:51.048Z,12.47
2024-04-03T09:22:51.041Z,12.53
2024-04-03T09:23:51.029Z,12.47
2024-04-03T09:24:51.019Z,12.47
2024-04-03T09:25:51.040Z,12.41
2024-04-03T09:26:51.002Z,12.47
2024-04-03T09:27:50.993Z,12.50
2024-04-03T09:28:50.973Z,12.39
2024-04-03T09:29:51.000Z,12.47
2024-04-03T09:30:50.963Z,12.42
2024-04-03T09:31:50.938Z,12.35
2024-04-03T09:32:50.927Z,12.29
2024-04-03T09:33:50.924Z,12.32
2024-04-03T09:34:50.928Z,12.31
2024-04-03T09:35:50.894Z,12.35
2024-04-03T09:36:50.887Z,12.41
2024-04-03T09:37:50.888Z,12.46
2024-04-03T09:38:50.873Z,12.56
2024-04-03T09:39:50.874Z,12.65
2024-04-03T09:40:50.837Z,12.74
2024-04-03T09:41:50.826Z,12.78
2024-04-03T09:42:50.822Z,12.75
2024-04-03T09:43:50.852Z,12.83
2024-04-03T09:44:50.810Z,12.89
2024-04-03T09:45:50.787Z,12.97
2024-04-03T09:46:50.774Z,12.95
2024-04-03T09:47:50.783Z,13.04
2024-04-03T09:48:50.759Z,12.92
2024-04-03T09:49:50.744Z,12.90
2024-04-03T09:50:50.722Z,12.85
2024-04-03T09:51:50.717Z,12.89
2024-04-03T09:52:50.706Z,12.89
2024-04-03T09:53:50.708Z,12.87
2024-04-03T09:54:50.911Z,12.85
2024-04-03T09:55:50.669Z,12.79
2024-04-03T09:56:50.659Z,12.82
2024-04-03T09:57:50.685Z,12.97
2024-04-03T09:58:50.655Z,12.83
2024-04-03T09:59:50.624Z,12.78
2024-04-03T10:00:50.608Z,12.77
2024-04-03T10:01:50.847Z,12.71
2024-04-03T10:02:50.608Z,12.67
2024-04-03T10:03:50.623Z,12.64
2024-04-03T10:04:50.568Z,12.60
2024-04-03T10:05:50.548Z,12.49
2024-04-03T10:06:50.544Z,12.50
2024-04-03T10:07:50.916Z,12.60
2024-04-03T10:08:50.527Z,12.45
2024-04-03T10:09:50.510Z,12.47
2024-04-03T10:10:50.495Z,12.49
2024-04-03T10:11:50.488Z,12.50
2024-04-03T10:12:50.530Z,12.53
2024-04-03T10:13:50.465Z,12.53
2024-04-03T10:14:50.489Z,12.42
2024-04-03T10:15:50.461Z,12.45
2024-04-03T10:16:50.465Z,12.32
2024-04-03T10:17:50.455Z,12.41
2024-04-03T10:18:50.434Z,12.59
2024-04-03T10:19:50.394Z,12.59
2024-04-03T10:20:50.383Z,12.54
2024-04-03T10:21:50.389Z,12.50
2024-04-03T10:22:50.368Z,12.62
2024-04-03T10:23:50.359Z,12.65
2024-04-03T10:24:50.335Z,12.62
2024-04-03T10:25:50.335Z,12.62
2024-04-03T10:26:50.650Z,12.68
2024-04-03T10:27:50.306Z,12.62
2024-04-03T10:28:50.295Z,12.68
2024-04-03T10:29:50.283Z,12.77
2024-04-03T10:30:50.298Z,12.79
2024-04-03T10:31:50.273Z,12.93
2024-04-03T10:32:50.249Z,12.83
2024-04-03T10:33:50.313Z,12.90
2024-04-03T10:34:50.274Z,12.87
2024-04-03T10:35:50.241Z,12.92
2024-04-03T10:36:50.198Z,13.15
2024-04-03T10:37:50.252Z,13.14
2024-04-03T10:38:50.180Z,13.42
2024-04-03T10:39:50.165Z,13.46
2024-04-03T10:40:54.665Z,13.55
2024-04-03T10:41:56.046Z,13.51
2024-04-03T10:42:51.135Z,13.45
2024-04-03T10:43:50.116Z,13.45
2024-04-03T10:44:50.118Z,13.64
2024-04-03T10:45:50.120Z,13.71
2024-04-03T10:46:50.090Z,13.55
2024-04-03T10:47:50.075Z,13.57
2024-04-03T10:48:50.074Z,13.59
2024-04-03T10:49:50.076Z,13.60
2024-04-03T10:50:50.054Z,13.78
2024-04-03T10:51:50.032Z,13.77
2024-04-03T10:52:50.090Z,13.73
2024-04-03T10:53:50.017Z,13.81
2024-04-03T10:54:50.017Z,13.84
2024-04-03T10:55:49.985Z,13.82
2024-04-03T10:56:49.979Z,13.84
2024-04-03T10:57:49.959Z,13.95
2024-04-03T10:58:49.972Z,13.99
2024-04-03T10:59:49.956Z,13.99
2024-04-03T11:00:49.945Z,13.89
2024-04-03T11:01:49.916Z,13.89
2024-04-03T11:02:49.921Z,13.78
2024-04-03T11:03:49.913Z,13.85
2024-04-03T11:04:49.905Z,13.97
2024-04-03T11:05:49.891Z,14.15
2024-04-03T11:06:49.864Z,14.20
2024-04-03T11:07:49.845Z,14.15
2024-04-03T11:08:49.852Z,14.03
2024-04-03T11:09:49.831Z,13.89
2024-04-03T11:10:49.821Z,13.70
2024-04-03T11:11:49.802Z,13.64
2024-04-03T11:12:49.815Z,13.69
2024-04-03T11:13:49.809Z,13.64
2024-04-03T11:14:49.767Z,13.64
2024-04-03T11:15:49.797Z,13.71
2024-04-03T11:16:49.752Z,13.78
2024-04-03T11:17:49.754Z,13.84
2024-04-03T11:18:49.727Z,14.02
2024-04-03T11:19:49.736Z,14.10
2024-04-03T11:20:49.727Z,14.14
2024-04-03T11:21:49.702Z,14.10
2024-04-03T11:22:49.857Z,14.09
2024-04-03T11:23:49.684Z,14.12
2024-04-03T11:24:49.649Z,14.18
2024-04-03T11:25:49.654Z,13.97
2024-04-03T11:26:49.636Z,14.15
2024-04-03T11:27:49.639Z,14.20
2024-04-03T11:28:49.619Z,14.18
2024-04-03T11:29:49.600Z,14.22
2024-04-03T11:30:49.586Z,14.14
2024-04-03T11:31:49.601Z,14.15
2024-04-03T11:32:49.585Z,14.17
2024-04-03T11:33:49.564Z,14.20
2024-04-03T11:34:49.542Z,14.14
2024-04-03T11:35:49.533Z,14.33
2024-04-03T11:36:49.534Z,14.29
2024-04-03T11:37:49.516Z,14.36
2024-04-03T11:38:49.495Z,14.42
2024-04-03T11:39:49.487Z,14.45
2024-04-03T11:40:49.477Z,14.24
2024-04-03T11:41:49.472Z,14.27
2024-04-03T11:42:49.451Z,14.43
2024-04-03T11:43:49.455Z,14.55
2024-04-03T11:44:49.441Z,14.36
2024-04-03T11:45:49.427Z,14.47
2024-04-03T11:46:49.474Z,14.52
2024-04-03T11:47:49.398Z,14.45
2024-04-03T11:48:49.383Z,14.52
2024-04-03T11:49:49.375Z,14.54
2024-04-03T11:50:49.379Z,14.64
2024-04-03T11:51:49.349Z,14.52
2024-04-03T11:52:49.340Z,14.61
2024-04-03T11:53:49.344Z,14.60
2024-04-03T11:54:49.345Z,14.64
2024-04-03T11:55:49.318Z,14.72
2024-04-03T11:56:49.303Z,14.62
2024-04-03T11:57:49.287Z,14.65
2024-04-03T11:58:49.280Z,14.65
2024-04-03T11:59:49.273Z,14.64
2024-04-03T12:00:49.484Z,14.75
2024-04-03T12:01:49.241Z,14.80
2024-04-03T12:02:49.228Z,14.89
2024-04-03T12:03:49.243Z,14.70
2024-04-03T12:04:49.215Z,14.45
2024-04-03T12:05:49.206Z,14.42
2024-04-03T12:06:49.183Z,14.47
2024-04-03T12:07:49.175Z,14.55
2024-04-03T12:08:49.168Z,14.70
2024-04-03T12:09:49.168Z,14.68
2024-04-03T12:10:49.189Z,14.77
2024-04-03T12:11:49.116Z,14.88
2024-04-03T12:12:49.117Z,14.98
2024-04-03T12:13:49.102Z,14.78
2024-04-03T12:14:49.099Z,14.89
2024-04-03T12:15:49.079Z,14.65
2024-04-03T12:16:49.065Z,14.64
2024-04-03T12:17:49.056Z,14.61
2024-04-03T12:18:49.052Z,14.75
2024-04-03T12:19:49.045Z,14.70
2024-04-03T12:20:49.011Z,14.69
2024-04-03T12:21:49.017Z,14.40
2024-04-03T12:22:49.000Z,14.32
2024-04-03T12:23:49.432Z,14.17
2024-04-03T12:24:48.992Z,14.15
2024-04-03T12:25:48.982Z,14.02
2024-04-03T12:26:48.948Z,13.91
2024-04-03T12:27:48.938Z,13.89
2024-04-03T12:28:48.939Z,13.77
2024-04-03T12:29:48.925Z,13.70
2024-04-03T12:30:48.903Z,13.73
2024-04-03T12:31:48.896Z,13.54
2024-04-03T12:32:48.902Z,13.52
2024-04-03T12:33:48.896Z,13.54
2024-04-03T12:34:48.867Z,13.49
2024-04-03T12:35:48.859Z,13.66
2024-04-03T12:37:05.304Z,13.54
2024-04-03T12:38:49.857Z,13.52
2024-04-03T12:39:48.805Z,13.51
2024-04-03T12:40:48.829Z,13.49
2024-04-03T12:41:48.802Z,13.48
2024-04-03T12:42:48.782Z,13.49
2024-04-03T12:43:48.781Z,13.45
2024-04-03T12:44:48.744Z,13.39
2024-04-03T12:45:48.825Z,13.39
2024-04-03T12:46:48.743Z,13.29
2024-04-03T12:47:48.731Z,13.32
2024-04-03T12:48:48.704Z,13.30
2024-04-03T12:49:48.699Z,13.26
2024-04-03T12:50:48.680Z,13.33
2024-04-03T12:51:48.693Z,13.28
2024-04-03T12:52:48.661Z,13.28
2024-04-03T12:53:48.648Z,13.10
2024-04-03T12:54:48.636Z,13.20
2024-04-03T12:55:48.628Z,13.22
2024-04-03T12:56:48.636Z,13.28
2024-04-03T12:57:48.615Z,13.29
2024-04-03T12:58:48.605Z,13.29
2024-04-03T12:59:48.575Z,13.39
2024-04-03T13:00:48.574Z,13.44
2024-04-03T13:01:48.564Z,13.39
2024-04-03T13:02:48.556Z,13.39
2024-04-03T13:03:48.533Z,13.48
2024-04-03T13:04:48.522Z,13.48
2024-04-03T13:05:48.522Z,13.70